createdAt,value
2018-04-22T00:02:23.490Z,10.20
2018-04-22T00:04:50.026Z,10.30
2018-04-22T00:07:16.568Z,10.20
2018-04-22T00:09:42.992Z,10.30
2018-04-22T00:12:09.514Z,10.30
2018-04-22T00:14:36.148Z,10.10
2018-04-22T00:17:02.823Z,10.10
2018-04-22T00:19:30.066Z,9.90
2018-04-22T00:21:56.556Z,9.90
2018-04-22T00:24:23.766Z,9.90
2018-04-22T00:26:50.490Z,9.80
2018-04-22T00:29:16.866Z,9.80
2018-04-22T00:31:43.384Z,9.80
2018-04-22T00:34:09.923Z,9.70
2018-04-22T00:36:36.525Z,9.70
2018-04-22T00:39:03.169Z,9.70
2018-04-22T00:41:29.710Z,9.70
2018-04-22T00:43:56.119Z,9.70
2018-04-22T00:46:22.600Z,9.70
2018-04-22T00:48:49.832Z,9.60
2018-04-22T00:51:16.343Z,9.60
2018-04-22T00:53:54.909Z,9.60
2018-04-22T00:56:21.331Z,9.50
2018-04-22T00:58:47.888Z,9.40
2018-04-22T01:01:14.383Z,9.40
2018-04-22T01:03:40.848Z,9.30
2018-04-22T01:06:07.315Z,9.30
2018-04-22T01:08:34.078Z,9.20
2018-04-22T01:11:00.462Z,9.10
2018-04-22T01:13:26.942Z,9.10
2018-04-22T01:15:53.554Z,9.10
2018-04-22T01:18:20.008Z,9.00
2018-04-22T01:20:47.216Z,8.90
2018-04-22T01:23:13.659Z,8.90
2018-04-22T01:25:40.076Z,8.90
2018-04-22T01:28:06.537Z,8.90
2018-04-22T01:30:33.024Z,8.90
2018-04-22T01:32:59.806Z,8.90
2018-04-22T01:35:26.253Z,8.90
2018-04-22T01:37:52.761Z,8.80
2018-04-22T01:40:19.212Z,8.70
2018-04-22T01:42:46.510Z,8.60
2018-04-22T01:45:12.952Z,8.60
2018-04-22T01:47:39.721Z,8.60
2018-04-22T01:50:06.176Z,8.60
2018-04-22T01:52:32.652Z,8.50
2018-04-22T01:54:59.500Z,8.40
2018-04-22T01:57:26.097Z,8.40
2018-04-22T01:59:52.659Z,8.30
2018-04-22T02:02:19.287Z,8.30
2018-04-22T02:04:45.876Z,8.30
2018-04-22T02:07:12.359Z,8.30
2018-04-22T02:09:39.066Z,8.30
2018-04-22T02:12:05.544Z,8.20
2018-04-22T02:14:32.058Z,8.20
2018-04-22T02:16:59.301Z,8.20
2018-04-22T02:19:25.767Z,8.20
2018-04-22T02:21:52.182Z,8.10
2018-04-22T02:24:19.501Z,8.00
2018-04-22T02:26:46.724Z,8.10
2018-04-22T02:29:13.260Z,8.00
2018-04-22T02:31:40.052Z,8.00
2018-04-22T02:34:06.438Z,8.00
2018-04-22T02:36:32.978Z,7.90
2018-04-22T02:38:59.464Z,7.90
2018-04-22T02:41:26.051Z,7.80
2018-04-22T02:43:53.217Z,7.90
2018-04-22T02:46:19.782Z,7.90
2018-04-22T02:48:46.337Z,7.90
2018-04-22T02:51:12.881Z,7.80
2018-04-22T02:53:39.417Z,7.80
2018-04-22T02:56:05.948Z,7.70
2018-04-22T02:58:33.444Z,7.70
2018-04-22T03:00:59.967Z,7.70
2018-04-22T03:03:26.408Z,7.60
2018-04-22T03:05:53.855Z,7.60
2018-04-22T03:08:20.676Z,7.60
2018-04-22T03:10:47.135Z,7.50
2018-04-22T03:13:13.621Z,7.50
2018-04-22T03:15:40.172Z,7.50
2018-04-22T03:18:07.416Z,7.40
2018-04-22T03:20:33.875Z,7.40
2018-04-22T03:23:00.680Z,7.50
2018-04-22T03:25:27.285Z,7.40
2018-04-22T03:27:53.787Z,7.40
2018-04-22T03:30:20.296Z,7.40
2018-04-22T03:32:46.799Z,7.40
2018-04-22T03:35:13.300Z,7.30
2018-04-22T03:37:39.826Z,7.30
2018-04-22T03:40:07.032Z,7.30
2018-04-22T03:42:33.564Z,7.30
2018-04-22T03:45:00.195Z,7.20
2018-04-22T03:47:26.632Z,7.20
2018-04-22T03:49:53.099Z,7.20
2018-04-22T03:52:20.381Z,7.20
2018-04-22T03:54:46.852Z,7.20
2018-04-22T03:57:13.357Z,7.30
2018-04-22T03:59:39.838Z,7.20
2018-04-22T04:02:06.378Z,7.20
2018-04-22T04:04:32.843Z,7.10
2018-04-22T04:06:59.661Z,7.10
2018-04-22T04:09:26.917Z,7.10
2018-04-22T04:11:53.335Z,7.10
2018-04-22T04:14:20.732Z,7.10
2018-04-22T04:16:47.246Z,7.10
2018-04-22T04:19:26.441Z,7.10
2018-04-22T04:22:05.008Z,7.10
2018-04-22T04:24:55.026Z,7.10
2018-04-22T04:30:21.704Z,7.10
2018-04-22T04:32:48.123Z,7.10
2018-04-22T04:35:14.613Z,7.10
2018-04-22T04:37:41.130Z,7.10
2018-04-22T04:40:07.657Z,7.10
2018-04-22T04:42:34.102Z,7.20
2018-04-22T04:45:01.409Z,7.30
2018-04-22T04:47:27.915Z,7.30
2018-04-22T04:49:55.105Z,7.40
2018-04-22T04:52:21.688Z,7.40
2018-04-22T04:54:48.318Z,7.40
2018-04-22T04:57:14.782Z,7.50
2018-04-22T04:59:41.416Z,7.50
2018-04-22T05:02:08.000Z,7.60
2018-04-22T05:04:34.415Z,7.60
2018-04-22T05:07:00.948Z,7.70
2018-04-22T05:09:27.378Z,7.70
2018-04-22T05:11:54.632Z,7.80
2018-04-22T05:14:21.194Z,7.80
2018-04-22T05:16:48.387Z,8.00
2018-04-22T05:19:14.791Z,8.00
2018-04-22T05:21:41.415Z,8.00
2018-04-22T05:24:07.900Z,8.10
2018-04-22T05:26:34.402Z,8.10
2018-04-22T05:29:00.843Z,8.10
2018-04-22T05:31:27.269Z,8.20
2018-04-22T05:33:54.575Z,8.20
2018-04-22T05:36:21.768Z,8.30
2018-04-22T05:38:48.259Z,8.30
2018-04-22T05:41:15.522Z,8.40
2018-04-22T05:43:42.088Z,8.40
2018-04-22T05:46:08.580Z,8.60
2018-04-22T05:48:35.039Z,8.50
2018-04-22T05:51:01.696Z,8.70
2018-04-22T05:53:28.147Z,8.70
2018-04-22T05:55:54.606Z,8.70
2018-04-22T05:58:22.040Z,8.70
2018-04-22T06:00:48.561Z,8.70
2018-04-22T06:03:15.254Z,8.70
2018-04-22T06:05:42.868Z,8.80
2018-04-22T06:08:09.347Z,8.80
2018-04-22T06:10:36.673Z,8.90
2018-04-22T06:13:03.468Z,9.00
2018-04-22T06:15:29.939Z,9.10
2018-04-22T06:17:56.382Z,9.20
2018-04-22T06:20:22.895Z,9.30
2018-04-22T06:22:49.365Z,9.30
2018-04-22T06:25:15.877Z,9.10
2018-04-22T06:27:42.910Z,9.10
2018-04-22T06:30:09.384Z,9.60
2018-04-22T06:32:35.808Z,10.50
2018-04-22T06:35:02.424Z,11.80
2018-04-22T06:37:28.811Z,13.30
2018-04-22T06:39:55.276Z,13.70
2018-04-22T06:42:21.779Z,14.20
2018-04-22T06:44:48.896Z,14.50
2018-04-22T06:47:15.385Z,14.50
2018-04-22T06:49:41.927Z,15.00
2018-04-22T06:52:08.378Z,15.00
2018-04-22T06:54:34.908Z,15.00
2018-04-22T06:57:01.636Z,15.30
2018-04-22T06:59:28.071Z,15.10
2018-04-22T07:01:54.528Z,15.10
2018-04-22T07:04:21.119Z,15.90
2018-04-22T07:06:48.267Z,16.10
2018-04-22T07:09:14.668Z,16.10
2018-04-22T07:11:41.274Z,16.30
2018-04-22T07:14:07.656Z,17.60
2018-04-22T07:16:34.854Z,15.40
2018-04-22T07:19:01.604Z,15.30
2018-04-22T07:21:28.171Z,15.20
2018-04-22T07:23:55.455Z,15.00
2018-04-22T07:26:22.071Z,15.00
2018-04-22T07:28:49.344Z,16.10
2018-04-22T07:31:15.769Z,16.10
2018-04-22T07:33:42.774Z,16.30
2018-04-22T07:36:09.241Z,16.30
2018-04-22T07:38:35.702Z,16.40
2018-04-22T07:41:02.238Z,17.60
2018-04-22T07:43:28.726Z,18.70
2018-04-22T07:45:55.285Z,19.20
2018-04-22T07:48:21.762Z,18.90
2018-04-22T07:50:48.195Z,18.50
2018-04-22T07:53:14.570Z,18.30
2018-04-22T07:55:41.842Z,18.30
2018-04-22T07:58:08.287Z,18.20
2018-04-22T08:00:34.733Z,17.30
2018-04-22T08:03:01.257Z,17.60
2018-04-22T08:05:27.833Z,17.00
2018-04-22T08:07:54.301Z,17.50
2018-04-22T08:10:20.898Z,17.50
2018-04-22T08:12:47.405Z,16.80
2018-04-22T08:15:14.687Z,17.10
2018-04-22T08:17:41.355Z,17.10
2018-04-22T08:20:07.738Z,17.80
2018-04-22T08:22:34.943Z,17.30
2018-04-22T08:25:01.449Z,17.20
2018-04-22T08:27:27.874Z,16.00
2018-04-22T08:29:54.372Z,17.50
2018-04-22T08:32:21.694Z,18.70
2018-04-22T08:34:48.312Z,18.70
2018-04-22T08:37:14.875Z,19.40
2018-04-22T08:39:42.352Z,19.50
2018-04-22T08:42:08.800Z,19.50
2018-04-22T08:44:36.263Z,18.50
2018-04-22T08:47:03.704Z,18.90
2018-04-22T08:49:31.024Z,18.80
2018-04-22T08:51:58.938Z,18.80
2018-04-22T08:54:25.792Z,19.50
2018-04-22T08:56:54.021Z,18.70
2018-04-22T08:59:21.206Z,19.00
2018-04-22T09:01:48.438Z,18.50
2018-04-22T09:04:15.661Z,18.10
2018-04-22T09:06:42.263Z,18.10
2018-04-22T09:09:08.792Z,17.60
2018-04-22T09:11:35.984Z,18.20
2018-04-22T09:14:02.376Z,18.20
2018-04-22T09:16:29.662Z,20.30
2018-04-22T09:18:56.271Z,20.30
2018-04-22T09:21:22.868Z,20.40
2018-04-22T09:23:49.568Z,19.60
2018-04-22T09:26:16.198Z,17.50
2018-04-22T09:28:42.681Z,19.90
2018-04-22T09:31:09.517Z,20.10
2018-04-22T09:33:36.027Z,20.30
2018-04-22T09:36:03.253Z,21.20
2018-04-22T09:38:30.175Z,21.20
2018-04-22T09:40:56.749Z,20.60
2018-04-22T09:43:24.166Z,18.70
2018-04-22T09:45:50.724Z,16.90
2018-04-22T09:48:17.188Z,15.80
2018-04-22T09:50:43.639Z,14.60
2018-04-22T09:53:10.183Z,15.30
2018-04-22T09:55:36.719Z,16.30
2018-04-22T09:58:03.207Z,15.90
2018-04-22T10:00:31.685Z,16.10
2018-04-22T10:02:58.255Z,16.10
2018-04-22T10:05:24.723Z,16.30
2018-04-22T10:07:51.604Z,16.40
2018-04-22T10:10:18.036Z,17.20
2018-04-22T10:12:44.564Z,17.50
2018-04-22T10:15:11.911Z,15.50
2018-04-22T10:17:38.339Z,15.40
2018-04-22T10:20:05.784Z,15.30
2018-04-22T10:22:32.605Z,15.30
2018-04-22T10:24:59.085Z,17.00
2018-04-22T10:27:26.639Z,18.60
2018-04-22T10:29:53.185Z,18.60
2018-04-22T10:32:26.727Z,18.00
2018-04-22T10:34:53.276Z,18.40
2018-04-22T10:37:20.194Z,19.00
2018-04-22T10:39:47.056Z,19.60
2018-04-22T10:42:13.514Z,19.70
2018-04-22T10:44:40.046Z,19.50
2018-04-22T10:47:07.507Z,18.50
2018-04-22T10:49:34.348Z,17.80
2018-04-22T10:52:00.851Z,16.90
2018-04-22T10:54:27.431Z,16.30
2018-04-22T10:56:54.074Z,16.90
2018-04-22T10:59:20.518Z,17.70
2018-04-22T11:01:47.199Z,17.30
2018-04-22T11:04:13.710Z,17.80
2018-04-22T11:06:40.950Z,19.30
2018-04-22T11:09:07.600Z,19.20
2018-04-22T11:11:34.937Z,19.20
2018-04-22T11:14:01.440Z,19.10
2018-04-22T11:16:27.895Z,19.70
2018-04-22T11:18:54.409Z,18.60
2018-04-22T11:21:20.931Z,17.70
2018-04-22T11:23:47.420Z,17.40
2018-04-22T11:26:14.384Z,17.60
2018-04-22T11:28:40.837Z,16.80
2018-04-22T11:31:08.135Z,15.70
2018-04-22T11:33:34.778Z,15.60
2018-04-22T11:36:01.351Z,15.00
2018-04-22T11:38:27.803Z,14.90
2018-04-22T11:40:54.401Z,15.50
2018-04-22T11:43:20.982Z,16.30
2018-04-22T11:45:48.443Z,16.40
2018-04-22T11:48:15.871Z,16.40
2018-04-22T11:50:42.372Z,17.30
2018-04-22T11:53:08.832Z,18.40
2018-04-22T11:55:36.077Z,18.50
2018-04-22T11:58:03.243Z,17.70
2018-04-22T12:00:30.524Z,16.90
2018-04-22T12:02:57.027Z,16.90
2018-04-22T12:05:23.495Z,17.00
2018-04-22T12:07:49.895Z,16.90
2018-04-22T12:10:16.454Z,16.70
2018-04-22T12:12:42.914Z,17.50
2018-04-22T12:15:09.361Z,18.40
2018-04-22T12:17:36.719Z,19.70
2018-04-22T12:20:03.144Z,19.60
2018-04-22T12:22:30.352Z,19.40
2018-04-22T12:24:56.971Z,19.40
2018-04-22T12:27:24.140Z,18.60
2018-04-22T12:29:51.360Z,18.10
2018-04-22T12:32:17.995Z,18.10
2018-04-22T12:34:44.548Z,17.30
2018-04-22T12:37:10.957Z,16.80
2018-04-22T12:39:37.910Z,16.10
2018-04-22T12:42:04.395Z,16.00
2018-04-22T12:44:30.906Z,15.80
2018-04-22T12:46:58.605Z,15.60
2018-04-22T12:49:25.064Z,15.50
2018-04-22T12:51:51.565Z,15.50
2018-04-22T12:54:18.415Z,15.80
2018-04-22T12:56:45.423Z,16.10
2018-04-22T12:59:12.681Z,15.70
2018-04-22T13:01:39.312Z,15.60
2018-04-22T13:04:05.814Z,15.50
2018-04-22T13:06:32.244Z,15.80
2018-04-22T13:08:59.471Z,16.70
2018-04-22T13:11:26.048Z,16.70
2018-04-22T13:13:52.571Z,16.80
2018-04-22T13:16:19.871Z,15.90
2018-04-22T13:18:47.102Z,15.70
2018-04-22T13:21:13.579Z,15.70
2018-04-22T13:23:40.140Z,15.80
2018-04-22T13:26:06.621Z,15.80
2018-04-22T13:28:33.829Z,15.90
2018-04-22T13:31:01.064Z,15.80
2018-04-22T13:33:27.555Z,15.80
2018-04-22T13:35:54.833Z,15.20
2018-04-22T13:38:22.278Z,15.10
2018-04-22T13:40:48.700Z,14.90
2018-04-22T13:43:15.111Z,14.90
2018-04-22T13:45:41.541Z,15.00
2018-04-22T13:48:09.588Z,14.80
2018-04-22T13:50:35.969Z,14.80
2018-04-22T13:53:03.215Z,14.80
2018-04-22T13:55:29.693Z,14.80
2018-04-22T13:57:56.202Z,14.70
2018-04-22T14:00:23.945Z,14.90
2018-04-22T14:02:51.164Z,15.00
2018-04-22T14:05:17.669Z,15.00
2018-04-22T14:07:44.238Z,15.30
2018-04-22T14:10:10.727Z,15.30
2018-04-22T14:12:38.393Z,15.50
2018-04-22T14:15:04.944Z,15.50
2018-04-22T14:17:31.465Z,15.50
2018-04-22T14:19:57.971Z,15.50
2018-04-22T14:22:24.517Z,15.50
2018-04-22T14:24:51.006Z,15.00
2018-04-22T14:27:17.454Z,14.70
2018-04-22T14:29:44.956Z,14.40
2018-04-22T14:32:12.183Z,14.30
2018-04-22T14:34:39.455Z,14.30
2018-04-22T14:37:06.374Z,14.30
2018-04-22T14:39:32.991Z,14.30
2018-04-22T14:41:59.509Z,14.30
2018-04-22T14:44:38.318Z,14.30
2018-04-22T14:47:05.604Z,14.20
2018-04-22T14:49:32.998Z,14.20
2018-04-22T14:51:59.524Z,14.30
2018-04-22T14:54:26.030Z,14.40
2018-04-22T14:56:52.506Z,14.40
2018-04-22T14:59:19.004Z,14.50
2018-04-22T15:01:45.525Z,14.70
2018-04-22T15:04:11.956Z,14.70
2018-04-22T15:06:38.747Z,14.50
2018-04-22T15:09:05.260Z,14.50
2018-04-22T15:11:32.790Z,14.40
2018-04-22T15:13:59.343Z,14.10
2018-04-22T15:16:25.792Z,14.30
2018-04-22T15:18:52.278Z,14.30
2018-04-22T15:21:19.456Z,14.30
2018-04-22T15:23:45.905Z,14.30
2018-04-22T15:26:12.387Z,14.40
2018-04-22T15:28:38.866Z,14.30
2018-04-22T15:31:05.357Z,14.40
2018-04-22T15:33:32.571Z,14.50
2018-04-22T15:35:59.182Z,14.50
2018-04-22T15:38:26.381Z,14.20
2018-04-22T15:40:52.835Z,14.20
2018-04-22T15:43:20.411Z,13.50
2018-04-22T15:45:47.199Z,13.50
2018-04-22T15:48:14.418Z,13.40
2018-04-22T15:50:41.079Z,13.40
2018-04-22T15:53:07.487Z,13.60
2018-04-22T15:55:40.079Z,13.50
2018-04-22T15:58:06.622Z,13.70
2018-04-22T16:00:33.037Z,13.70
2018-04-22T16:02:59.494Z,13.70
2018-04-22T16:05:26.042Z,13.50
2018-04-22T16:07:52.584Z,13.30
2018-04-22T16:10:19.868Z,13.10
2018-04-22T16:12:46.374Z,13.10
2018-04-22T16:15:12.985Z,13.10
2018-04-22T16:17:39.478Z,12.90
2018-04-22T16:20:06.727Z,12.60
2018-04-22T16:22:33.152Z,12.50
2018-04-22T16:24:59.646Z,12.20
2018-04-22T16:27:26.248Z,12.20
2018-04-22T16:29:53.444Z,12.20
2018-04-22T16:32:19.979Z,12.20
2018-04-22T16:34:46.568Z,12.10
2018-04-22T16:37:13.036Z,12.00
2018-04-22T16:39:39.576Z,12.00
2018-04-22T16:42:06.154Z,11.90
2018-04-22T16:44:32.630Z,11.80
2018-04-22T16:46:59.205Z,11.80
2018-04-22T16:49:25.726Z,11.50
2018-04-22T16:51:52.240Z,11.20
2018-04-22T16:54:18.616Z,11.20
2018-04-22T16:56:45.280Z,11.20
2018-04-22T16:59:11.740Z,11.20
2018-04-22T17:01:38.249Z,11.20
2018-04-22T17:04:04.795Z,11.00
2018-04-22T17:06:32.013Z,10.90
2018-04-22T17:08:58.509Z,11.00
2018-04-22T17:11:26.196Z,10.30
2018-04-22T17:13:52.685Z,10.30
2018-04-22T17:16:19.156Z,10.10
2018-04-22T17:18:45.692Z,10.00
2018-04-22T17:21:12.156Z,9.90
2018-04-22T17:23:38.617Z,9.90
2018-04-22T17:26:05.442Z,9.90
2018-04-22T17:28:32.644Z,9.60
2018-04-22T17:30:59.265Z,9.60
2018-04-22T17:33:25.846Z,9.50
2018-04-22T17:35:52.300Z,9.40
2018-04-22T17:38:18.802Z,9.50
2018-04-22T17:40:45.674Z,9.30
2018-04-22T17:43:12.106Z,9.30
2018-04-22T17:45:38.603Z,9.30
2018-04-22T17:48:05.256Z,9.40
2018-04-22T17:50:31.771Z,9.40
2018-04-22T17:52:58.315Z,9.40
2018-04-22T17:55:24.725Z,9.30
2018-04-22T17:57:51.223Z,9.30
2018-04-22T18:00:17.857Z,9.30
2018-04-22T18:02:44.789Z,9.30
2018-04-22T18:05:12.010Z,8.90
2018-04-22T18:07:38.537Z,8.90
2018-04-22T18:10:05.353Z,8.90
2018-04-22T18:12:32.547Z,8.80
2018-04-22T18:14:59.154Z,8.80
2018-04-22T18:17:25.722Z,8.70
2018-04-22T18:19:52.284Z,8.70
2018-04-22T18:22:18.773Z,8.70
2018-04-22T18:24:45.512Z,8.80
2018-04-22T18:27:11.993Z,8.70
2018-04-22T18:29:38.440Z,8.70
2018-04-22T18:32:05.506Z,8.60
2018-04-22T18:34:32.020Z,8.50
2018-04-22T18:36:58.541Z,8.40
2018-04-22T18:39:25.043Z,8.40
2018-04-22T18:41:51.600Z,8.40
2018-04-22T18:44:18.041Z,8.40
2018-04-22T18:46:45.107Z,8.30
2018-04-22T18:49:11.600Z,8.20
2018-04-22T18:51:38.068Z,8.20
2018-04-22T18:54:04.681Z,8.10
2018-04-22T18:56:31.102Z,8.00
2018-04-22T18:58:58.244Z,7.90
2018-04-22T19:01:24.964Z,7.90
2018-04-22T19:03:51.819Z,7.90
2018-04-22T19:06:19.084Z,8.00
2018-04-22T19:08:46.403Z,8.00
2018-04-22T19:11:13.253Z,8.00
2018-04-22T19:13:40.532Z,7.90
2018-04-22T19:16:07.245Z,7.90
2018-04-22T19:18:33.804Z,8.00
2018-04-22T19:21:01.064Z,8.00
2018-04-22T19:23:28.395Z,8.00
2018-04-22T19:25:55.995Z,7.90
2018-04-22T19:28:22.451Z,7.90
2018-04-22T19:30:50.084Z,8.00
2018-04-22T19:33:16.612Z,8.00
2018-04-22T19:35:42.963Z,7.90
2018-04-22T19:38:09.485Z,7.80
2018-04-22T19:40:36.031Z,7.60
2018-04-22T19:43:02.532Z,7.40
2018-04-22T19:45:29.527Z,7.30
2018-04-22T19:47:56.016Z,7.30
2018-04-22T19:50:22.484Z,7.30
2018-04-22T19:52:49.002Z,7.30
2018-04-22T19:55:16.200Z,7.10
2018-04-22T19:57:42.682Z,7.20
2018-04-22T20:00:10.403Z,7.30
2018-04-22T20:02:36.795Z,7.20
2018-04-22T20:05:03.264Z,7.30
2018-04-22T20:07:29.785Z,7.30
2018-04-22T20:09:56.369Z,7.30
2018-04-22T20:12:22.808Z,7.20
2018-04-22T20:14:49.400Z,7.20
2018-04-22T20:17:16.034Z,7.20
2018-04-22T20:19:44.060Z,7.20
2018-04-22T20:22:10.794Z,7.30
2018-04-22T20:24:37.275Z,7.30
2018-04-22T20:27:03.831Z,7.20
2018-04-22T20:29:30.730Z,7.20
2018-04-22T20:31:57.946Z,7.10
2018-04-22T20:34:24.434Z,7.10
2018-04-22T20:36:51.172Z,7.00
2018-04-22T20:39:17.665Z,7.10
2018-04-22T20:41:44.089Z,7.20
2018-04-22T20:44:11.096Z,7.20
2018-04-22T20:46:38.354Z,7.10
2018-04-22T20:49:04.813Z,7.20
2018-04-22T20:51:32.180Z,7.20
2018-04-22T20:53:58.698Z,7.20
2018-04-22T20:56:26.147Z,7.10
2018-04-22T20:58:53.351Z,7.10
2018-04-22T21:01:19.880Z,7.00
2018-04-22T21:03:47.128Z,6.90
2018-04-22T21:06:13.639Z,6.90
2018-04-22T21:08:40.169Z,6.90
2018-04-22T21:11:06.695Z,6.90
2018-04-22T21:13:33.281Z,6.90
2018-04-22T21:15:59.791Z,6.90
2018-04-22T21:18:26.380Z,6.80
2018-04-22T21:20:52.850Z,6.70
2018-04-22T21:23:19.348Z,6.70
2018-04-22T21:25:45.821Z,6.60
2018-04-22T21:28:13.593Z,6.50
2018-04-22T21:30:40.051Z,6.40
2018-04-22T21:33:06.464Z,6.30
2018-04-22T21:35:32.988Z,6.30
2018-04-22T21:38:00.115Z,6.30
2018-04-22T21:40:26.645Z,6.30
2018-04-22T21:42:53.276Z,6.30
2018-04-22T21:45:19.790Z,6.30
2018-04-22T21:47:47.105Z,6.30
2018-04-22T21:50:14.394Z,6.40
2018-04-22T21:52:41.585Z,6.40
2018-04-22T21:55:08.116Z,6.40
2018-04-22T21:57:34.920Z,6.30
2018-04-22T22:00:01.520Z,6.30
2018-04-22T22:02:28.907Z,6.20
2018-04-22T22:04:55.619Z,6.20
2018-04-22T22:07:22.156Z,6.10
2018-04-22T22:09:48.635Z,6.10
2018-04-22T22:12:16.119Z,6.10
2018-04-22T22:14:42.712Z,6.10
2018-04-22T22:19:42.384Z,6.00
2018-04-22T22:22:08.953Z,6.10
2018-04-22T22:24:35.437Z,6.10
2018-04-22T22:27:02.725Z,6.10
2018-04-22T22:29:29.199Z,6.00
2018-04-22T22:31:55.620Z,6.10
2018-04-22T22:34:22.191Z,6.10
2018-04-22T22:36:48.703Z,6.10
2018-04-22T22:39:15.225Z,6.10
2018-04-22T22:41:41.841Z,6.10
2018-04-22T22:44:08.295Z,6.10
2018-04-22T22:46:34.753Z,6.00
2018-04-22T22:49:01.262Z,6.00
2018-04-22T22:51:27.752Z,5.90
2018-04-22T22:53:54.227Z,5.90
2018-04-22T22:56:21.052Z,5.90
2018-04-22T22:58:47.535Z,5.90
2018-04-22T23:01:14.056Z,5.80
2018-04-22T23:03:41.356Z,5.90
2018-04-22T23:06:07.834Z,5.90
2018-04-22T23:08:34.250Z,6.00
2018-04-22T23:11:00.906Z,5.90
2018-04-22T23:13:28.232Z,5.90
2018-04-22T23:15:54.769Z,5.90
2018-04-22T23:18:21.302Z,5.80
2018-04-22T23:20:47.788Z,5.80
2018-04-22T23:23:14.287Z,5.80
2018-04-22T23:25:41.005Z,5.90
2018-04-22T23:28:07.518Z,5.90
2018-04-22T23:30:34.780Z,5.90
2018-04-22T23:33:02.041Z,5.90
2018-04-22T23:35:28.509Z,5.90
2018-04-22T23:37:55.012Z,5.90
2018-04-22T23:40:21.551Z,5.90
2018-04-22T23:42:48.122Z,6.00
2018-04-22T23:45:14.521Z,6.00
2018-04-22T23:47:41.500Z,6.00
2018-04-22T23:50:07.992Z,5.90
2018-04-22T23:52:34.502Z,5.90
2018-04-22T23:55:01.074Z,5.90
2018-04-22T23:57:27.604Z,5.80
2018-04-22T23:59:54.028Z,5.90
